Airport View

Enter AWOS ICAO identifier for current METAR.

ex. KFNL

K2V5 212315Z AUTO 09008G16KT 10SM CLR 26/M02 A2993 RMK AO2

21 Sep 2019 23:24

Frequency: 118.250

Phone: 970-332-5930

Other Area AWOS: K2V6 - KHEQ - KSYF - KAKO

TAF KGLD 211720Z 2118/2218 06011KT P6SM SKC FM220600 36015G25KT P6SM SCT120 FM221200 35009KT P6SM SCT250